Flight Track Log - Related Links

Times and Time Zones

All times are in EDT time to prevent confusion due to time zone crossing. See the FLG4262 flight status page for this flight to view local times or setup timezone preferences in your user account.

Time Position Orientation Groundspeed Altitude Reporting Facility
EDT Latitude Longitude Course Direction KTS MPH feet Rate Location/Type
Sun 04:09:51 PM 42.2281 -83.3533 83° East 152 175 1,400  Level Cleveland Center
Sun 04:10:46 PM 42.2664 -83.3192 33° Northeast 204 235 2,900 1,733 Climbing Cleveland Center
Sun 04:11:21 PM 42.2836 -83.3028 35° Northeast 212 244 4,000 2,852 Climbing Cleveland Center
Sun 04:11:47 PM 42.3158 -83.2753 32° Northeast 213 245 5,800 2,516 Climbing Cleveland Center
Sun 04:12:23 PM 42.3247 -83.2394 71° East 233 268 6,600 2,066 Climbing Cleveland Center
Sun 04:12:48 PM 42.3147 -83.1819 103° East 283 326 7,900 2,419 Climbing Cleveland Center
Sun 04:13:25 PM 42.2953 -83.1256 115° Southeast 279 321 9,100 1,935 Climbing Cleveland Center
Sun 04:13:50 PM 42.2786 -83.0783 115° Southeast 312 359 9,900 871 Climbing Cleveland Center
Sun 04:14:00 PM 42.2346 -82.5647 94° East  Level Estimated
Sun 04:14:27 PM 42.2706 -83.0089 99° East 331 381 10,000  Level Cleveland Center
Sun 04:15:00 PM 42.2481 -82.4079 83° East  Level FlightAware Approximate
Sun 04:15:29 PM 42.2939 -82.8886 75° East 335 386 11,900  Level Cleveland Center
Sun 04:16:31 PM 42.3161 -82.7603 77° East 346 398 13,700 1,645 Climbing Cleveland Center
Sun 04:17:33 PM 42.3369 -82.6297 78° East 354 407 15,300 1,645 Climbing Cleveland Center
Sun 04:18:35 PM 42.3642 -82.4669 77° East 368 423 17,100 1,440 Climbing Cleveland Center
Sun 04:19:38 PM 42.3617 -82.3214 91° East 392 451 18,300 1,104 Climbing Cleveland Center
Sun 04:20:40 PM 42.3558 -82.1722 93° East 398 458 19,400 1,161 Climbing Cleveland Center
Sun 04:21:42 PM 42.3481 -82.0036 94° East 406 467 20,700 1,210 Climbing Cleveland Center
Sun 04:22:44 PM 42.3417 -81.8481 93° East 410 472 21,900 1,065 Climbing Cleveland Center
Sun 04:23:46 PM 42.3347 -81.6919 93° East 412 474 22,900 919 Climbing Cleveland Center
Sun 04:24:48 PM 42.3269 -81.5317 94° East 420 483 23,800 871 Climbing Cleveland Center
Sun 04:25:50 PM 42.3186 -81.3700 94° East 425 489 24,700 581 Climbing Cleveland Center
Sun 04:26:52 PM 42.3111 -81.2053 93° East 433 498 25,000 145 Climbing Cleveland Center
Sun 04:27:54 PM 42.3028 -81.0353 94° East 445 512 25,000  Level Cleveland Center
Sun 04:28:56 PM 42.2939 -80.8678 94° East 444 511 25,000  Level Cleveland Center
Sun 04:29:59 PM 42.2833 -80.6728 94° East 442 509 25,000  Level Cleveland Center
Sun 04:31:00 PM 42.2744 -80.5094 94° East 436 502 25,000  Level Cleveland Center
Sun 04:32:02 PM 42.2661 -80.3419 94° East 440 506 25,000  Level Cleveland Center
Sun 04:33:05 PM 42.2556 -80.1747 95° East 443 510 25,000  Level Cleveland Center
Sun 04:34:07 PM 42.2447 -80.0072 95° East 443 510 25,000  Level Cleveland Center
Sun 04:35:09 PM 42.2350 -79.8217 94° East 442 509 25,000  Level Cleveland Center
Sun 04:36:11 PM 42.2233 -79.6578 95° East 441 507 25,000  Level Cleveland Center
Sun 04:37:13 PM 42.2128 -79.4922 95° East 445 512 25,000  Level Cleveland Center
Sun 04:38:15 PM 42.2022 -79.3278 95° East 442 509 25,000  Level Cleveland Center
Sun 04:39:17 PM 42.1911 -79.1653 95° East 438 504 25,000  Level Cleveland Center
Sun 04:40:19 PM 42.1911 -78.9722 90° East 432 497 25,000 -339 Level Cleveland Center
Sun 04:41:21 PM 42.1931 -78.8178 89° East 430 495 24,300 -968 Descending Cleveland Center
Sun 04:42:23 PM 42.1958 -78.6583 89° East 430 495 23,000 -629 Descending Cleveland Center
Sun 04:43:25 PM 42.1983 -78.5039 89° East 419 482 23,000  Level Cleveland Center
Sun 04:44:27 PM 42.2014 -78.3242 89° East 405 466 23,000 -48 Level Cleveland Center
Sun 04:45:30 PM 42.2039 -78.1756 89° East 402 463 22,900 -528 Descending Cleveland Center
Sun 04:46:32 PM 42.2061 -78.0261 89° East 402 463 21,900 -968 Descending Cleveland Center
Sun 04:47:34 PM 42.2075 -77.8808 89° East 394 453 20,900 -968 Descending Cleveland Center
Sun 04:48:36 PM 42.2081 -77.7386 90° East 385 443 19,900 -1,065 Descending Cleveland Center
Sun 04:49:38 PM 42.2094 -77.5714 89° East 378 435 18,700 -1,065 Descending Cleveland Center
Sun 04:50:40 PM 42.2100 -77.4308 90° East 380 437 17,700 -823 Descending Cleveland Center
Sun 04:51:42 PM 42.2108 -77.2906 89° East 378 435 17,000 -339 Descending Cleveland Center
Sun 04:52:44 PM 42.2103 -77.1542 90° East 370 426 17,000 -294 Level Cleveland Center
Sun 04:53:24 PM 42.2094 -77.0450 91° East 376 433 16,500 -1,560 Descending New York Center
Sun 04:54:24 PM 42.2103 -76.9133 89° East 364 419 14,400 -2,050 Descending New York Center
Sun 04:55:24 PM 42.2103 -76.7872 90° East 351 404 12,400 -1,900 Descending New York Center
Sun 04:56:24 PM 42.1914 -76.6653 102° East 337 388 10,600 -1,550 Descending New York Center
Sun 04:57:24 PM 42.1486 -76.5608 119° Southeast 317 365 9,300 -1,067 Descending New York Center
Sun 04:57:54 PM 42.1339 -76.5222 117° Southeast 305 351 9,000 -400 Descending Cleveland Center
Sun 04:58:24 PM 42.1114 -76.4708 121° Southeast 300 345 8,900 -1,067 Descending New York Center
Sun 04:59:24 PM 42.0758 -76.3839 119° Southeast 280 322 7,400 -1,500 Descending New York Center
Sun 05:00:24 PM 42.0425 -76.3000 118° Southeast 267 307 5,900 -1,150 Descending New York Center
Sun 05:01:24 PM 42.0067 -76.2161 120° Southeast 262 302 5,100 -450 Descending New York Center
Sun 05:02:24 PM 41.9769 -76.1383 117° Southeast 250 288 5,000 -50 Descending New York Center
Sun 05:03:24 PM 41.9706 -76.0514 96° East 236 272 5,000  Level New York Center
Sun 05:04:24 PM 41.9719 -75.9706 89° East 230 265 5,000 -450 Level New York Center
Sun 05:05:24 PM 41.9736 -75.8842 88° East 235 270 4,100 -500 Descending New York Center
Sun 05:06:24 PM 42.0286 -75.8633 16° North 160 184 4,000 -50 Descending New York Center
Sun 05:07:24 PM 42.0783 -75.8700 354° North 160 184 4,000 -150 Level New York Center
Sun 05:08:24 PM 42.1183 -75.9067 326° Northwest 160 184 3,700 -600 Descending New York Center
Sun 05:09:24 PM 42.1564 -75.9403 327° Northwest 165 190 2,800 -900 Descending New York Center

Login

Don't have an account? Register now (free) for customized features, flight alerts, and more!